Time;durP1;ratioP1;P1;durP2;ratioP2;P2;SDS_P1;SDS_P2;PMS_P1;PMS_P2;Temp;Humidity;BMP_temperature;BMP_pressure;BME280_temperature;BME280_humidity;BME280_pressure;Samples;Min_cycle;Max_cycle;Signal;HPM_P1;HPM_P2
2022/01/07 00:01:07;;;;;;;12.02;6.05;;;20.20;52.90;;;;;;5014898;28;20030;-76
2022/01/07 00:03:33;;;;;;;11.07;5.75;;;20.20;52.90;;;;;;4997563;28;20490;-75
2022/01/07 00:05:59;;;;;;;11.30;5.93;;;20.20;53.00;;;;;;4997065;28;20034;-75
2022/01/07 00:08:26;;;;;;;10.52;5.90;;;20.20;52.90;;;;;;4997458;28;20308;-75
2022/01/07 00:10:53;;;;;;;9.55;5.40;;;20.20;52.90;;;;;;5014898;28;20034;-76
2022/01/07 00:13:19;;;;;;;10.45;5.78;;;20.20;53.00;;;;;;5014861;28;20069;-75
2022/01/07 00:15:45;;;;;;;8.82;5.63;;;20.20;53.00;;;;;;5014730;28;20057;-76
2022/01/07 00:18:11;;;;;;;9.48;5.82;;;20.20;53.10;;;;;;5024882;23;20025;-74
2022/01/07 00:20:37;;;;;;;8.73;5.25;;;20.20;53.10;;;;;;4959213;28;20041;-74
2022/01/07 00:23:03;;;;;;;11.80;5.93;;;20.20;52.90;;;;;;5002299;28;20024;-74
2022/01/07 00:25:29;;;;;;;9.23;5.50;;;20.20;53.10;;;;;;5014513;28;20482;-75
2022/01/07 00:27:55;;;;;;;9.90;5.32;;;20.20;53.10;;;;;;5014263;28;20025;-75
2022/01/07 00:30:21;;;;;;;9.63;5.38;;;20.20;53.10;;;;;;4980795;28;20441;-75
2022/01/07 00:32:48;;;;;;;11.35;5.53;;;20.20;53.10;;;;;;5014622;28;20084;-74
2022/01/07 00:35:15;;;;;;;10.02;5.80;;;20.20;53.00;;;;;;5014524;28;20030;-75
2022/01/07 00:37:42;;;;;;;9.82;5.05;;;20.20;53.10;;;;;;5013415;28;20084;-74
2022/01/07 00:40:17;;;;;;;10.25;5.60;;;20.10;53.00;;;;;;4996853;28;20034;-75
2022/01/07 00:42:45;;;;;;;10.07;5.47;;;20.10;53.00;;;;;;5012287;28;20105;-75
2022/01/07 00:45:12;;;;;;;9.27;5.15;;;20.10;53.10;;;;;;4973712;28;20029;-75
2022/01/07 00:47:38;;;;;;;9.95;5.43;;;20.20;53.10;;;;;;4993762;28;20030;-75
2022/01/07 00:50:05;;;;;;;9.80;5.80;;;20.20;53.10;;;;;;4977000;28;20022;-75
2022/01/07 00:52:32;;;;;;;8.68;5.00;;;20.10;53.10;;;;;;4994598;28;20471;-75
2022/01/07 00:54:58;;;;;;;10.98;6.05;;;20.10;53.10;;;;;;4994129;28;20160;-75
2022/01/07 00:57:24;;;;;;;10.38;5.50;;;20.10;53.10;;;;;;4994061;28;20037;-76
2022/01/07 00:59:50;;;;;;;9.43;5.00;;;20.10;53.10;;;;;;4994584;28;20030;-74
2022/01/07 01:02:16;;;;;;;8.52;4.90;;;20.10;53.10;;;;;;4977125;28;20022;-74
2022/01/07 01:04:45;;;;;;;8.35;5.07;;;20.20;53.20;;;;;;4994092;28;20033;-74
2022/01/07 01:07:12;;;;;;;9.93;5.70;;;20.10;53.10;;;;;;4994022;28;20030;-73
2022/01/07 01:09:38;;;;;;;10.77;5.20;;;20.10;53.10;;;;;;4993976;28;20534;-73
2022/01/07 01:12:05;;;;;;;10.35;5.47;;;20.10;53.20;;;;;;4994074;28;20105;-75
2022/01/07 01:14:30;;;;;;;9.60;5.22;;;20.10;53.10;;;;;;4993731;28;20141;-74
2022/01/07 01:16:58;;;;;;;10.93;5.35;;;20.10;53.20;;;;;;4960499;28;20463;-74
2022/01/07 01:19:24;;;;;;;7.82;4.53;;;20.10;53.00;;;;;;4976383;28;20438;-73
2022/01/07 01:21:53;;;;;;;8.40;4.95;;;20.20;53.70;;;;;;4994117;28;20033;-73
2022/01/07 01:24:18;;;;;;;10.88;5.43;;;20.20;53.00;;;;;;4993960;28;20030;-74
2022/01/07 01:26:44;;;;;;;9.65;4.97;;;20.10;53.00;;;;;;4976163;28;20030;-74
2022/01/07 01:29:10;;;;;;;7.88;4.97;;;20.10;53.00;;;;;;4976326;28;20036;-74
2022/01/07 01:31:36;;;;;;;9.82;4.88;;;20.10;53.00;;;;;;4993846;28;20037;-73
2022/01/07 01:34:03;;;;;;;9.20;4.78;;;20.10;52.90;;;;;;4993713;28;20030;-75
2022/01/07 01:36:29;;;;;;;11.13;5.45;;;20.10;52.90;;;;;;4975938;28;20407;-74
2022/01/07 01:38:55;;;;;;;8.60;4.80;;;20.20;53.00;;;;;;4993520;28;20453;-74
2022/01/07 01:41:21;;;;;;;9.10;5.03;;;20.10;53.00;;;;;;4993652;28;20033;-74
2022/01/07 01:43:49;;;;;;;9.02;5.28;;;20.10;53.00;;;;;;4993604;28;20078;-74
2022/01/07 01:46:18;;;;;;;8.90;5.03;;;20.10;53.10;;;;;;4993125;28;20018;-74
2022/01/07 01:48:45;;;;;;;8.02;4.78;;;20.10;53.10;;;;;;4959879;28;20429;-73
2022/01/07 01:51:11;;;;;;;7.13;4.20;;;20.10;53.10;;;;;;4993876;28;20092;-74
2022/01/07 01:53:37;;;;;;;8.95;4.88;;;20.20;53.10;;;;;;4993342;28;20027;-73
2022/01/07 01:56:04;;;;;;;7.95;4.90;;;20.10;53.10;;;;;;4992943;28;20027;-74
2022/01/07 01:58:30;;;;;;;7.90;4.47;;;20.10;53.00;;;;;;4993329;28;20042;-73
2022/01/07 02:00:56;;;;;;;7.53;4.82;;;20.10;53.00;;;;;;4993129;28;20027;-74
2022/01/07 02:03:22;;;;;;;8.55;4.63;;;20.10;53.00;;;;;;4993241;28;20026;-74
2022/01/07 02:05:48;;;;;;;8.07;4.50;;;20.10;53.00;;;;;;4992877;28;20475;-74
2022/01/07 02:08:14;;;;;;;9.90;5.47;;;20.10;53.00;;;;;;4992994;28;20030;-75
2022/01/07 02:10:41;;;;;;;8.70;4.75;;;20.10;53.10;;;;;;4975705;28;20026;-74
2022/01/07 02:13:07;;;;;;;9.18;4.97;;;20.10;53.10;;;;;;4993023;28;20068;-74
2022/01/07 02:15:33;;;;;;;8.88;5.10;;;20.10;53.10;;;;;;4992904;28;20034;-74
2022/01/07 02:17:58;;;;;;;10.15;4.97;;;20.10;53.10;;;;;;4992490;28;20085;-74
2022/01/07 02:20:30;;;;;;;8.93;4.53;;;20.10;53.10;;;;;;4975553;28;20085;-73
2022/01/07 02:22:57;;;;;;;8.77;4.88;;;20.10;53.00;;;;;;4992934;28;20018;-74
2022/01/07 02:25:24;;;;;;;8.40;4.80;;;20.10;53.00;;;;;;4992893;28;20030;-74
2022/01/07 02:27:51;;;;;;;8.20;4.43;;;20.10;53.00;;;;;;4975081;28;20037;-74
2022/01/07 02:30:20;;;;;;;7.97;4.90;;;20.10;53.60;;;;;;4992294;28;20105;-74
2022/01/07 02:32:46;;;;;;;11.37;4.87;;;20.10;53.00;;;;;;4992816;28;20026;-74
2022/01/07 02:35:16;;;;;;;9.57;4.65;;;20.10;53.00;;;;;;4959336;28;20174;-73
2022/01/07 02:37:42;;;;;;;;;;;20.10;53.00;;;;;;4975350;28;20128;-74
2022/01/07 02:40:09;;;;;;;9.27;4.88;;;20.10;53.00;;;;;;4992532;28;20374;-74
2022/01/07 02:42:35;;;;;;;7.82;4.47;;;20.10;52.90;;;;;;4992685;28;20100;-74
2022/01/07 02:45:02;;;;;;;9.18;4.60;;;20.10;52.90;;;;;;4992591;28;20029;-74
2022/01/07 02:47:34;;;;;;;7.75;4.22;;;20.10;53.40;;;;;;4975114;28;20049;-74
2022/01/07 02:50:05;;;;;;;7.68;4.75;;;20.10;52.80;;;;;;4992442;28;20104;-74
2022/01/07 02:52:31;;;;;;;7.40;4.28;;;20.10;52.80;;;;;;4975186;28;20026;-75
2022/01/07 02:54:57;;;;;;;8.75;4.63;;;20.10;52.70;;;;;;4992529;28;20034;-74
2022/01/07 02:57:23;;;;;;;8.60;4.80;;;20.10;52.70;;;;;;4974834;28;20034;-74
2022/01/07 02:59:49;;;;;;;7.97;4.38;;;20.10;52.80;;;;;;4975837;28;20113;-74
2022/01/07 03:02:14;;;;;;;8.05;4.80;;;20.10;52.80;;;;;;4996587;28;20037;-74
2022/01/07 03:04:40;;;;;;;9.07;4.50;;;20.10;52.80;;;;;;4996514;28;20034;-74
2022/01/07 03:07:06;;;;;;;7.93;4.38;;;20.10;52.80;;;;;;4996336;28;20511;-74
2022/01/07 03:09:32;;;;;;;8.90;4.63;;;20.10;52.80;;;;;;4996641;28;20037;-74
2022/01/07 03:11:57;;;;;;;8.95;4.70;;;20.10;52.80;;;;;;4996311;28;20026;-75
2022/01/07 03:14:25;;;;;;;9.05;4.43;;;20.10;52.70;;;;;;4996428;28;20061;-75
2022/01/07 03:16:51;;;;;;;6.43;4.13;;;20.10;52.70;;;;;;4996005;28;20077;-74
2022/01/07 03:19:16;;;;;;;8.82;4.70;;;20.10;52.80;;;;;;4996022;28;20508;-75
2022/01/07 03:21:42;;;;;;;8.05;4.38;;;20.10;52.80;;;;;;4996098;28;20065;-74
2022/01/07 03:24:08;;;;;;;7.95;4.55;;;20.10;52.80;;;;;;4996395;28;20068;-74
2022/01/07 03:26:34;;;;;;;8.32;4.72;;;20.10;52.80;;;;;;4978459;28;20037;-75
2022/01/07 03:28:59;;;;;;;7.45;4.18;;;20.10;52.70;;;;;;4996147;28;20176;-74
2022/01/07 03:31:25;;;;;;;7.53;4.30;;;20.10;52.80;;;;;;4995984;28;20109;-74
2022/01/07 03:33:51;;;;;;;7.57;4.28;;;20.10;52.80;;;;;;4995992;28;20030;-75
2022/01/07 03:36:17;;;;;;;7.50;4.28;;;20.10;52.70;;;;;;4995619;28;20049;-75
2022/01/07 03:38:43;;;;;;;9.70;4.40;;;20.10;52.80;;;;;;4995867;28;20406;-74
2022/01/07 03:41:08;;;;;;;7.68;4.50;;;20.10;52.80;;;;;;4995668;28;20022;-74
2022/01/07 03:43:34;;;;;;;7.18;4.25;;;20.10;52.80;;;;;;4995805;28;20531;-74
2022/01/07 03:46:00;;;;;;;8.18;4.20;;;20.10;52.70;;;;;;4995457;28;20057;-74
2022/01/07 03:48:26;;;;;;;7.07;4.07;;;20.00;52.60;;;;;;4995781;28;20057;-74
2022/01/07 03:50:51;;;;;;;7.43;4.00;;;20.00;52.50;;;;;;4995667;28;20022;-75
2022/01/07 03:53:17;;;;;;;7.97;3.80;;;20.00;52.70;;;;;;4995455;28;20034;-74
2022/01/07 03:55:43;;;;;;;7.63;4.30;;;20.00;52.70;;;;;;4995523;28;20061;-74
2022/01/07 03:58:09;;;;;;;7.18;3.95;;;20.00;52.80;;;;;;4995460;28;20125;-74
2022/01/07 04:00:40;;;;;;;6.97;3.90;;;20.00;52.60;;;;;;4995421;28;20030;-74
2022/01/07 04:03:12;;;;;;;7.50;4.07;;;20.00;52.70;;;;;;4995809;28;20030;-74
2022/01/07 04:05:38;;;;;;;7.18;4.05;;;20.00;52.60;;;;;;4995455;28;20505;-74
2022/01/07 04:08:05;;;;;;;7.90;4.05;;;20.00;52.60;;;;;;4994901;28;20034;-74
2022/01/07 04:10:30;;;;;;;6.78;3.97;;;20.00;52.50;;;;;;4995479;28;20061;-74
2022/01/07 04:12:56;;;;;;;8.23;3.90;;;20.00;52.60;;;;;;4977873;28;20062;-75
2022/01/07 04:15:23;;;;;;;7.30;3.90;;;20.00;52.50;;;;;;4995114;28;20038;-74
2022/01/07 04:17:50;;;;;;;7.78;4.05;;;20.10;52.50;;;;;;4995033;28;20114;-74
2022/01/07 04:20:19;;;;;;;8.38;4.40;;;20.10;52.50;;;;;;4995260;28;20030;-74
2022/01/07 04:22:46;;;;;;;7.22;4.00;;;20.10;52.50;;;;;;4977712;28;20026;-74
2022/01/07 04:25:17;;;;;;;8.43;4.20;;;20.10;52.50;;;;;;4995139;28;20053;-74
2022/01/07 04:28:02;;;;;;;6.45;4.13;;;20.10;52.50;;;;;;4977105;28;20023;-75
2022/01/07 04:30:37;;;;;;;7.07;3.70;;;20.10;52.50;;;;;;4995022;28;20023;-74
2022/01/07 04:33:04;;;;;;;5.88;3.67;;;20.00;52.50;;;;;;4994840;28;20090;-75
2022/01/07 04:35:32;;;;;;;6.13;3.65;;;20.00;52.50;;;;;;4994874;28;20104;-74
2022/01/07 04:37:58;;;;;;;7.45;3.80;;;20.00;52.50;;;;;;4994567;28;20161;-74
2022/01/07 04:40:24;;;;;;;6.63;3.70;;;20.00;52.50;;;;;;4994552;28;20483;-74
2022/01/07 04:42:50;;;;;;;5.75;3.60;;;20.00;52.50;;;;;;4994835;28;20041;-76
2022/01/07 04:45:16;;;;;;;6.53;3.92;;;20.00;52.50;;;;;;4994704;28;20023;-74
2022/01/07 04:47:42;;;;;;;7.57;4.03;;;20.00;52.50;;;;;;4994176;28;20030;-74
2022/01/07 04:50:13;;;;;;;5.68;3.30;;;20.00;52.50;;;;;;4994708;28;20031;-74
2022/01/07 04:52:41;;;;;;;5.93;3.65;;;20.00;52.50;;;;;;4994568;28;20026;-74
2022/01/07 04:55:07;;;;;;;7.10;3.72;;;20.00;52.50;;;;;;4994537;28;20034;-74
2022/01/07 04:57:33;;;;;;;7.05;3.90;;;20.00;52.50;;;;;;4994106;28;20037;-74
2022/01/07 04:59:58;;;;;;;6.82;3.75;;;20.00;52.50;;;;;;4994392;28;20026;-74
2022/01/07 05:02:24;;;;;;;6.10;3.63;;;20.00;52.50;;;;;;4994267;28;20033;-74
2022/01/07 05:04:50;;;;;;;6.43;3.60;;;20.00;52.50;;;;;;4976979;28;20026;-74
2022/01/07 05:07:16;;;;;;;6.70;4.05;;;20.00;52.50;;;;;;4993951;28;20386;-74
2022/01/07 05:09:42;;;;;;;7.07;3.75;;;20.00;52.50;;;;;;4994098;28;20029;-74
2022/01/07 05:12:08;;;;;;;6.78;3.63;;;20.00;52.50;;;;;;4976849;28;20491;-74
2022/01/07 05:14:34;;;;;;;6.63;3.50;;;20.00;52.50;;;;;;4977006;28;20180;-74
2022/01/07 05:17:00;;;;;;;6.47;3.80;;;20.00;52.50;;;;;;4993687;28;20101;-74
2022/01/07 05:19:25;;;;;;;5.53;3.40;;;20.00;52.50;;;;;;4994102;28;20022;-75
2022/01/07 05:21:51;;;;;;;5.78;3.58;;;20.00;52.40;;;;;;4993862;28;20030;-74
2022/01/07 05:24:17;;;;;;;6.28;3.83;;;20.00;52.50;;;;;;4993890;28;20455;-74
2022/01/07 05:26:43;;;;;;;5.50;3.42;;;20.00;52.50;;;;;;4993751;28;20022;-75
2022/01/07 05:29:08;;;;;;;5.35;3.38;;;20.00;52.50;;;;;;4993766;28;20026;-74
2022/01/07 05:31:34;;;;;;;6.15;3.80;;;20.00;52.50;;;;;;4993811;28;20030;-74
2022/01/07 05:34:00;;;;;;;6.43;3.80;;;20.00;52.40;;;;;;4993697;28;20026;-74
2022/01/07 05:36:25;;;;;;;6.28;3.40;;;20.00;52.40;;;;;;4993523;28;20032;-75
2022/01/07 05:38:52;;;;;;;5.85;3.85;;;20.00;52.30;;;;;;4993705;28;20033;-74
2022/01/07 05:41:18;;;;;;;7.63;3.78;;;20.00;52.30;;;;;;4976310;28;20037;-74
2022/01/07 05:43:44;;;;;;;6.35;3.65;;;20.00;52.30;;;;;;4993327;28;20053;-74
2022/01/07 05:46:13;;;;;;;7.18;3.45;;;20.00;52.30;;;;;;4993071;28;20065;-74
2022/01/07 05:48:39;;;;;;;6.55;3.75;;;20.00;52.20;;;;;;4993681;28;20368;-74
2022/01/07 05:51:05;;;;;;;5.55;3.63;;;20.00;52.20;;;;;;4993526;28;20030;-74
2022/01/07 05:53:31;;;;;;;6.40;3.78;;;20.00;52.20;;;;;;4993422;28;20085;-74
2022/01/07 05:55:56;;;;;;;7.00;3.63;;;20.10;52.20;;;;;;4993013;28;20026;-74
2022/01/07 05:58:22;;;;;;;7.25;4.05;;;20.00;52.20;;;;;;4993323;28;20450;-74
2022/01/07 06:00:48;;;;;;;6.53;3.72;;;20.00;52.20;;;;;;4993494;28;20238;-74
2022/01/07 06:03:14;;;;;;;5.90;3.55;;;20.00;52.20;;;;;;4993188;28;20026;-74
2022/01/07 06:05:39;;;;;;;5.90;3.20;;;20.00;52.20;;;;;;4993371;28;20493;-74
2022/01/07 06:08:05;;;;;;;5.57;3.63;;;20.00;52.20;;;;;;4992686;28;20414;-75
2022/01/07 06:10:31;;;;;;;6.60;3.55;;;20.00;52.20;;;;;;4993102;28;20506;-75
2022/01/07 06:12:56;;;;;;;5.13;3.30;;;20.00;52.30;;;;;;4993007;28;20062;-74
2022/01/07 06:15:22;;;;;;;6.65;3.33;;;20.00;52.30;;;;;;4992965;28;20034;-75
2022/01/07 06:17:48;;;;;;;5.10;3.50;;;20.00;52.30;;;;;;4992572;28;20117;-76
2022/01/07 06:20:14;;;;;;;7.55;3.40;;;20.00;52.20;;;;;;4993353;28;20053;-74
2022/01/07 06:22:39;;;;;;;5.90;3.38;;;20.00;52.20;;;;;;4992774;28;20057;-74
2022/01/07 06:25:06;;;;;;;6.20;3.60;;;20.00;52.20;;;;;;4992840;28;20022;-74
2022/01/07 06:27:32;;;;;;;5.80;3.47;;;20.00;52.20;;;;;;4975233;28;20026;-74
2022/01/07 06:29:57;;;;;;;5.72;3.40;;;20.00;52.30;;;;;;4975427;28;20040;-74
2022/01/07 06:32:24;;;;;;;5.80;3.35;;;20.00;52.30;;;;;;4992780;28;20030;-75
2022/01/07 06:34:51;;;;;;;6.15;3.47;;;20.00;52.20;;;;;;4991918;28;20033;-74
2022/01/07 06:37:17;;;;;;;5.53;3.30;;;19.90;52.10;;;;;;4992439;28;20024;-75
2022/01/07 06:39:42;;;;;;;6.85;3.45;;;20.00;52.30;;;;;;4992781;28;20113;-75
2022/01/07 06:42:08;;;;;;;5.32;3.40;;;20.00;52.20;;;;;;4992622;28;20036;-74
2022/01/07 06:44:35;;;;;;;5.18;3.22;;;19.90;52.20;;;;;;4992545;28;20027;-74
2022/01/07 06:47:01;;;;;;;6.07;3.70;;;20.00;52.30;;;;;;4992359;28;20080;-75
2022/01/07 06:49:29;;;;;;;6.43;3.50;;;20.00;52.20;;;;;;4991960;28;20037;-75
2022/01/07 06:51:57;;;;;;;7.57;3.40;;;20.00;52.20;;;;;;4992657;28;20439;-75
2022/01/07 06:54:23;;;;;;;5.72;3.55;;;19.90;52.20;;;;;;4992425;28;20038;-75
2022/01/07 06:56:49;;;;;;;6.05;3.33;;;19.90;52.20;;;;;;4975021;28;20042;-75
2022/01/07 06:59:15;;;;;;;5.95;3.40;;;19.90;52.10;;;;;;4992772;28;20075;-75
2022/01/07 07:01:42;;;;;;;5.68;3.70;;;19.90;52.20;;;;;;4992842;28;20037;-75
2022/01/07 07:04:08;;;;;;;5.50;3.45;;;19.90;52.10;;;;;;4992271;28;20078;-75
2022/01/07 07:06:34;;;;;;;6.75;3.88;;;19.90;52.10;;;;;;4992109;28;20475;-75
2022/01/07 07:09:02;;;;;;;5.47;2.95;;;19.90;52.10;;;;;;4975010;28;20030;-75
2022/01/07 07:11:28;;;;;;;5.82;3.28;;;20.00;52.10;;;;;;4975046;28;20398;-75
2022/01/07 07:13:54;;;;;;;5.35;3.45;;;20.00;52.00;;;;;;4975183;28;20034;-75
2022/01/07 07:16:20;;;;;;;6.25;3.42;;;20.00;52.00;;;;;;4992406;28;20031;-75
2022/01/07 07:18:46;;;;;;;5.05;3.33;;;20.00;52.00;;;;;;4992009;28;20506;-75
2022/01/07 07:21:12;;;;;;;5.70;3.20;;;20.00;52.10;;;;;;4992305;28;20041;-75
2022/01/07 07:23:38;;;;;;;5.72;3.25;;;20.00;52.00;;;;;;4992180;28;20030;-75
2022/01/07 07:26:04;;;;;;;5.88;3.55;;;20.00;52.00;;;;;;4991923;28;20022;-75
2022/01/07 07:28:30;;;;;;;6.03;3.70;;;20.00;52.00;;;;;;4974599;28;20057;-75
2022/01/07 07:30:59;;;;;;;6.80;3.47;;;20.00;52.00;;;;;;4992424;28;20062;-75
2022/01/07 07:38:39;;;;;;;5.25;3.35;;;19.90;52.00;;;;;;4991977;28;20026;-76
2022/01/07 07:41:08;;;;;;;7.45;3.72;;;19.90;52.00;;;;;;4991983;28;20049;-75
2022/01/07 07:43:34;;;;;;;5.32;3.28;;;20.00;52.00;;;;;;4992136;28;20055;-75
2022/01/07 07:46:01;;;;;;;5.47;3.30;;;19.90;52.00;;;;;;4992927;28;20037;-75
2022/01/07 07:48:27;;;;;;;6.20;3.40;;;19.90;52.00;;;;;;4995634;28;20066;-75
2022/01/07 07:50:53;;;;;;;6.25;3.42;;;20.00;52.10;;;;;;4995636;28;20068;-75
2022/01/07 07:53:19;;;;;;;5.45;3.45;;;19.90;52.00;;;;;;4995633;28;20110;-75
2022/01/07 07:55:51;;;;;;;6.13;3.38;;;19.90;52.00;;;;;;4995433;28;20109;-75
2022/01/07 07:58:16;;;;;;;6.38;3.47;;;19.90;52.00;;;;;;4995364;28;20066;-75
2022/01/07 08:00:42;;;;;;;5.68;3.38;;;19.90;52.10;;;;;;4995134;28;20390;-75
2022/01/07 08:03:08;;;;;;;5.55;3.65;;;19.90;52.00;;;;;;4995475;28;20056;-75
2022/01/07 08:05:34;;;;;;;5.85;3.67;;;19.90;51.90;;;;;;4977892;28;20053;-75
2022/01/07 08:08:02;;;;;;;5.90;3.20;;;19.90;52.10;;;;;;4995164;28;20031;-75
2022/01/07 08:10:29;;;;;;;6.13;3.60;;;19.90;52.00;;;;;;4995318;28;20480;-75
2022/01/07 08:18:23;;;;;;;5.90;3.80;;;19.90;52.00;;;;;;4995025;28;20031;-75
2022/01/07 08:20:50;;;;;;;5.18;3.38;;;20.00;52.60;;;;;;4977728;28;20037;-75
2022/01/07 08:23:16;;;;;;;6.15;3.75;;;20.00;52.00;;;;;;4995071;28;20105;-74
2022/01/07 08:25:42;;;;;;;6.38;3.90;;;19.90;52.00;;;;;;4994859;28;20026;-75
2022/01/07 08:28:09;;;;;;;5.43;3.40;;;19.90;52.00;;;;;;4994767;28;20030;-75
2022/01/07 08:30:37;;;;;;;6.65;3.30;;;19.90;52.10;;;;;;4995036;28;20041;-75
2022/01/07 08:35:48;;;;;;;6.93;3.70;;;19.90;52.00;;;;;;4994486;28;20034;-74
2022/01/07 08:38:14;;;;;;;6.00;3.30;;;20.00;51.90;;;;;;4994648;28;20121;-75
2022/01/07 08:40:40;;;;;;;5.45;3.42;;;19.90;51.90;;;;;;4994711;28;20121;-75
2022/01/07 08:43:06;;;;;;;6.45;3.78;;;20.00;51.90;;;;;;4977303;28;20037;-75
2022/01/07 08:45:32;;;;;;;5.80;3.65;;;20.00;51.90;;;;;;4994579;28;20026;-75
2022/01/07 08:47:59;;;;;;;6.82;3.83;;;20.00;51.80;;;;;;4994403;28;20153;-75
2022/01/07 08:50:25;;;;;;;6.03;3.63;;;20.00;51.80;;;;;;4994518;28;20041;-75
2022/01/07 08:52:52;;;;;;;6.13;3.30;;;20.00;51.80;;;;;;4977220;28;20037;-75
2022/01/07 08:55:19;;;;;;;5.70;3.33;;;19.90;51.80;;;;;;4994481;28;20475;-75
2022/01/07 08:57:45;;;;;;;6.03;3.63;;;19.90;51.80;;;;;;4993299;28;20033;-75
2022/01/07 09:00:11;;;;;;;6.47;4.00;;;19.90;51.80;;;;;;4994330;28;20121;-75
2022/01/07 09:02:37;;;;;;;5.85;3.42;;;19.90;51.80;;;;;;4994416;28;20479;-75
2022/01/07 09:05:03;;;;;;;6.85;3.55;;;19.90;51.80;;;;;;4993689;28;20019;-74
2022/01/07 09:07:29;;;;;;;6.70;3.70;;;19.90;51.80;;;;;;4994167;28;20031;-75
2022/01/07 09:09:54;;;;;;;5.95;3.63;;;19.90;51.90;;;;;;4976976;28;20418;-75
2022/01/07 09:12:20;;;;;;;5.57;3.50;;;19.90;51.90;;;;;;4994233;28;20034;-76
2022/01/07 09:14:46;;;;;;;5.65;3.35;;;19.90;51.90;;;;;;4994220;28;20022;-75
2022/01/07 09:17:12;;;;;;;6.97;3.70;;;19.90;51.90;;;;;;4993704;28;20220;-75
2022/01/07 09:19:38;;;;;;;5.63;3.65;;;19.90;51.90;;;;;;4993886;28;20026;-74
2022/01/07 09:22:03;;;;;;;6.88;3.92;;;19.90;51.90;;;;;;4993915;28;20027;-75
2022/01/07 09:24:29;;;;;;;7.13;3.75;;;19.90;52.00;;;;;;4994075;28;20023;-75
2022/01/07 09:26:59;;;;;;;6.75;3.78;;;20.00;52.00;;;;;;4993545;28;20138;-75
2022/01/07 09:29:27;;;;;;;5.60;3.42;;;20.00;52.00;;;;;;4993947;28;20072;-75
2022/01/07 09:31:54;;;;;;;5.93;3.45;;;19.90;52.00;;;;;;4993821;28;20038;-75
2022/01/07 09:34:20;;;;;;;6.13;3.72;;;19.90;52.00;;;;;;4976351;28;20161;-75
2022/01/07 09:36:46;;;;;;;5.60;3.47;;;19.90;52.00;;;;;;4976009;28;20105;-74
2022/01/07 09:39:12;;;;;;;6.07;3.40;;;19.90;51.90;;;;;;4993664;28;20037;-75
2022/01/07 09:41:39;;;;;;;5.22;3.53;;;19.90;52.00;;;;;;4993422;28;20080;-75
2022/01/07 09:44:09;;;;;;;6.82;3.83;;;20.00;52.00;;;;;;4993697;28;20031;-74
2022/01/07 09:46:42;;;;;;;6.18;3.70;;;19.90;52.00;;;;;;4993100;28;20027;-75
2022/01/07 09:49:08;;;;;;;6.22;3.60;;;20.00;52.00;;;;;;4993552;28;20037;-75
2022/01/07 09:51:37;;;;;;;6.68;3.70;;;20.00;52.00;;;;;;4993602;28;20117;-75
2022/01/07 09:54:04;;;;;;;7.22;3.95;;;19.90;51.90;;;;;;4976241;28;20486;-75
2022/01/07 09:56:29;;;;;;;7.43;3.78;;;19.90;52.00;;;;;;4959723;28;20034;-75
2022/01/07 09:58:55;;;;;;;7.22;4.00;;;19.90;51.90;;;;;;4975907;28;20037;-75
2022/01/07 10:01:23;;;;;;;5.72;3.88;;;20.00;51.80;;;;;;4993140;28;20545;-75
2022/01/07 10:03:48;;;;;;;6.13;3.63;;;20.00;51.90;;;;;;4993313;28;20077;-75
2022/01/07 10:06:26;;;;;;;7.07;3.72;;;20.00;51.90;;;;;;4992810;28;20027;-75
2022/01/07 10:09:11;;;;;;;6.07;3.90;;;20.00;51.90;;;;;;4993109;28;20117;-75
2022/01/07 10:11:38;;;;;;;6.15;3.67;;;20.00;51.90;;;;;;4992627;28;20126;-75
2022/01/07 10:14:20;;;;;;;6.38;3.45;;;20.00;51.90;;;;;;4993187;28;20037;-75
2022/01/07 10:16:58;;;;;;;5.78;3.50;;;20.00;51.80;;;;;;4959431;28;20026;-75
2022/01/07 10:19:50;;;;;;;5.70;3.47;;;20.00;51.80;;;;;;4975515;28;20050;-75
2022/01/07 10:22:16;;;;;;;6.63;3.70;;;20.00;52.40;;;;;;4988308;28;20541;-75
2022/01/07 10:25:03;;;;;;;5.95;3.75;;;20.00;51.80;;;;;;4992977;28;20026;-75
2022/01/07 10:27:36;;;;;;;5.00;3.40;;;20.00;51.80;;;;;;4992566;28;20041;-75
2022/01/07 10:30:13;;;;;;;6.32;3.60;;;20.10;51.90;;;;;;4992777;28;20034;-74
2022/01/07 10:32:40;;;;;;;5.85;3.50;;;20.00;51.80;;;;;;4992800;28;20031;-74
2022/01/07 10:35:09;;;;;;;5.47;3.38;;;20.00;51.90;;;;;;4992913;28;20052;-74
2022/01/07 10:37:51;;;;;;;6.88;3.83;;;20.00;51.90;;;;;;4992469;28;20034;-74
2022/01/07 10:40:27;;;;;;;5.20;3.50;;;20.00;51.90;;;;;;4992703;28;20524;-74
2022/01/07 10:43:14;;;;;;;5.18;3.30;;;20.00;51.90;;;;;;4992447;28;20165;-74
2022/01/07 10:45:42;;;;;;;6.03;3.78;;;20.00;51.90;;;;;;4976629;28;20510;-74
2022/01/07 10:48:08;;;;;;;6.70;3.70;;;20.00;51.90;;;;;;4992418;28;20026;-74
2022/01/07 10:50:40;;;;;;;5.30;3.50;;;20.00;51.90;;;;;;4975289;28;20502;-74
2022/01/07 10:53:21;;;;;;;5.57;3.58;;;20.00;51.90;;;;;;4992753;28;20506;-74
2022/01/07 10:56:09;;;;;;;5.15;3.45;;;20.00;52.00;;;;;;4992390;28;20113;-73
2022/01/07 10:58:57;;;;;;;5.00;3.20;;;20.00;51.90;;;;;;4992495;28;20487;-74
2022/01/07 11:01:33;;;;;;;6.38;3.80;;;20.00;51.90;;;;;;4992235;28;20125;-74
2022/01/07 11:04:02;;;;;;;6.05;3.40;;;20.00;51.80;;;;;;4992325;28;20030;-74
2022/01/07 11:06:28;;;;;;;5.43;3.65;;;20.00;51.90;;;;;;4992000;28;20179;-74
2022/01/07 11:08:56;;;;;;;5.38;3.42;;;20.00;52.00;;;;;;4992041;28;20026;-74
2022/01/07 11:11:23;;;;;;;6.50;3.50;;;20.00;51.90;;;;;;4992309;28;20652;-75
2022/01/07 11:13:49;;;;;;;5.13;3.30;;;20.00;51.80;;;;;;4992071;28;20505;-75
2022/01/07 11:16:16;;;;;;;6.45;3.65;;;20.00;51.90;;;;;;4991825;28;20517;-74
2022/01/07 11:18:45;;;;;;;5.72;3.65;;;20.00;51.80;;;;;;4974531;28;20034;-74
2022/01/07 11:21:11;;;;;;;6.22;3.67;;;20.00;51.70;;;;;;4975940;28;20487;-75
2022/01/07 11:23:38;;;;;;;5.45;3.35;;;20.00;51.80;;;;;;4995996;28;20027;-75
2022/01/07 11:26:05;;;;;;;5.88;3.65;;;20.00;51.80;;;;;;4995712;28;20026;-75
2022/01/07 11:28:32;;;;;;;5.22;3.40;;;20.00;51.80;;;;;;4995846;28;20105;-75
2022/01/07 11:31:12;;;;;;;6.45;3.28;;;20.00;51.80;;;;;;4995967;28;20034;-75
2022/01/07 11:33:38;;;;;;;;;;;20.00;51.80;;;;;;4996496;28;20044;-75
2022/01/07 11:36:04;;;;;;;5.53;3.30;;;20.00;51.70;;;;;;4978417;28;19909;-75
2022/01/07 11:38:46;;;;;;;5.10;3.20;;;20.00;51.80;;;;;;4995922;28;20022;-75
2022/01/07 11:41:44;;;;;;;5.50;3.28;;;20.00;51.80;;;;;;4962387;28;20177;-75
2022/01/07 11:44:30;;;;;;;5.15;3.25;;;20.00;51.80;;;;;;4962341;28;20030;-75
2022/01/07 11:47:19;;;;;;;5.65;3.67;;;20.00;51.80;;;;;;4977722;28;20041;-75
2022/01/07 11:49:56;;;;;;;5.78;3.30;;;20.00;51.50;;;;;;4978333;28;20116;-76
2022/01/07 11:52:37;;;;;;;6.45;3.92;;;20.10;51.70;;;;;;4995582;28;20039;-75
2022/01/07 11:55:36;;;;;;;6.43;3.47;;;20.00;51.70;;;;;;4995499;28;20042;-75
2022/01/07 11:58:07;;;;;;;5.85;3.65;;;20.00;51.70;;;;;;4941750;28;20129;-75
2022/01/07 12:00:59;;;;;;;4.70;3.10;;;20.00;51.70;;;;;;4995585;28;20038;-75
2022/01/07 12:03:48;;;;;;;4.45;3.13;;;20.00;51.70;;;;;;4995381;28;20044;-75
2022/01/07 12:06:23;;;;;;;6.07;3.40;;;20.00;51.60;;;;;;4961704;28;20387;-75
2022/01/07 12:09:11;;;;;;;5.05;3.25;;;20.00;51.70;;;;;;4995249;28;20030;-75
2022/01/07 12:11:39;;;;;;;5.57;3.33;;;20.00;51.70;;;;;;4995560;28;20033;-75
2022/01/07 12:14:15;;;;;;;5.63;3.40;;;20.00;51.70;;;;;;4977888;28;20073;-75
2022/01/07 12:16:44;;;;;;;4.60;3.30;;;20.00;51.70;;;;;;4994962;28;20034;-75
2022/01/07 12:19:19;;;;;;;5.70;3.17;;;20.00;51.60;;;;;;4994929;28;20038;-75
2022/01/07 12:21:47;;;;;;;5.13;3.20;;;20.00;51.70;;;;;;4977667;28;20315;-74
2022/01/07 12:24:15;;;;;;;5.60;3.60;;;20.00;51.60;;;;;;4995208;28;20022;-74
2022/01/07 12:26:41;;;;;;;5.90;3.13;;;20.00;51.70;;;;;;4994946;28;20023;-74
2022/01/07 12:29:19;;;;;;;6.93;3.47;;;20.00;51.70;;;;;;4977440;28;20045;-74
2022/01/07 12:31:49;;;;;;;6.32;3.58;;;20.00;51.70;;;;;;4976967;28;20498;-74
2022/01/07 12:34:24;;;;;;;6.20;3.63;;;20.00;51.70;;;;;;4994323;28;20457;-75
2022/01/07 12:36:55;;;;;;;6.25;3.53;;;20.00;51.40;;;;;;4977217;28;20042;-75
2022/01/07 12:39:26;;;;;;;6.22;3.60;;;20.00;51.60;;;;;;4977325;28;20039;-75
2022/01/07 12:41:53;;;;;;;6.03;3.22;;;20.00;51.70;;;;;;4994663;28;20052;-75
2022/01/07 12:44:19;;;;;;;6.00;3.65;;;20.00;51.60;;;;;;4994600;28;20038;-75
2022/01/07 12:46:54;;;;;;;5.47;3.55;;;20.00;51.60;;;;;;4993926;28;20383;-74
2022/01/07 12:49:31;;;;;;;6.13;3.65;;;20.00;51.60;;;;;;4994708;28;20500;-74
2022/01/07 12:52:07;;;;;;;5.43;3.50;;;20.00;51.70;;;;;;4995082;28;20041;-75
2022/01/07 12:54:34;;;;;;;7.65;3.53;;;20.00;51.70;;;;;;4994529;28;20502;-75
2022/01/07 12:57:00;;;;;;;5.75;3.50;;;20.00;51.60;;;;;;4994247;28;20034;-75
2022/01/07 12:59:29;;;;;;;7.55;3.83;;;20.00;51.50;;;;;;4994328;28;20068;-74
2022/01/07 13:01:55;;;;;;;6.60;3.55;;;20.00;51.60;;;;;;4994410;28;20030;-75
2022/01/07 13:04:23;;;;;;;6.25;3.72;;;20.10;51.70;;;;;;4977089;28;20117;-74